Het weer levert geen direct gevaar op.    Er zijn geen waarschuwingen afgegeven.

Regen radar Meer informatie rain snow radar


Bezoek onze andere website:

Template documentation
and downloads

And another site

Forum Leuven-template

EUWEATHER.EU

Verwachtingen Meteociel


U vindt ons ook hier:

Het Weer Aktueel

UK Metoffice

European Weather Network

WeatherCloud

Weather Underground

Benelux Weer Netwerk

AWEKAS

WeatherlinkIP

HAMweather, WeatherForYou, PWS Weather

Wetter.com



METAR rapporten vliegvelden

   
EBAW - Antwerp
Gewijzigd: 25-05-2020 04:20
Helder  
Helder  
   Wind: WZW 7.4 km/h
Wind: WZW 7.4 km/h
Temperatuur: 14°C
Dauwpunt: 11°C
Vochtigheid: 82%
Barometer: 1033 hPa
Zicht: meer dan 10 km
Bewolking: Helder
EBAW 250220Z AUTO 25004KT CAVOK 14/11 Q1033
EBLG - Li├Ęge
Gewijzigd: 25-05-2020 04:20
Grotendeels bewolkt  
Grotendeels bewolkt  
   Wind: Westen 7.4 km/h
Wind: Westen 7.4 km/h
Temperatuur: 12°C
Dauwpunt: 10°C
Vochtigheid: 88%
Barometer: 1033 hPa
Bewolking: Grotendeels bewolkt
Zicht: meer dan 10 km
Bewolking: Gedeeltelijk bewolkt 2500 ft,
Grotendeels bewolkt 4000 ft
EBLG 250220Z 27004KT 9999 SCT025 BKN040 12/10 Q1033 NOSIG
EBCV - Mons/Bergen
Gewijzigd: 19-05-2020 01:55
Verouderd
  
  
   Wind: ZZW 9.3 km/h
Wind: ZZW 9.3 km/h
Temperatuur: 9°C
Voelt als: 8°C
Dauwpunt: 2°C
Vochtigheid: 62%
Barometer: 1023 hPa
Zicht: meer dan 10 km
EBCV 182355Z AUTO 21005KT 9999 /// 09/02 Q1023
EHBK - Maastricht
Gewijzigd: 25-05-2020 04:25
Gedeeltelijk bewolkt  
Gedeeltelijk bewolkt  
   Wind: Westen 5.6 km/h
Wind: Westen 5.6 km/h
Temperatuur: 13°C
Dauwpunt: 10°C
Vochtigheid: 82%
Barometer: 1032 hPa
Bewolking: Gedeeltelijk bewolkt
Zicht: meer dan 10 km
Bewolking: Gedeeltelijk bewolkt
EHBK 250225Z AUTO 28003KT 230V310 9999 NSC 13/10 Q1032
ELLX - Luxemburg
Gewijzigd: 25-05-2020 04:20
Helder  
Helder  
   Wind: NNW 9.3 km/h
Wind: NNW 9.3 km/h
Temperatuur: 9°C
Voelt als: 8°C
Dauwpunt: 8°C
Vochtigheid: 94%
Barometer: 1033 hPa
Bewolking: Helder
Zicht: meer dan 10 km
Bewolking: Helder
ELLX 250220Z AUTO 33005KT 9999 NCD 09/08 Q1033 NOSIG
EBOS - Oostende
Gewijzigd: 25-05-2020 04:20
Gedeeltelijk bewolkt  
Gedeeltelijk bewolkt  
   Wind: Noorden 1.9 km/h
Wind: Noorden 1.9 km/h
Temperatuur: 12°C
Dauwpunt: 11°C
Vochtigheid: 94%
Barometer: 1034 hPa
Bewolking: Gedeeltelijk bewolkt
Zicht: 8 km
Bewolking: Gedeeltelijk bewolkt 4200 ft
EBOS 250220Z 01001KT 8000 SCT042 12/11 Q1034 NOSIG

Script ontwikkeld door  Saratoga-weather.org Aangepast voor de template door  Weerstation Leuven

Apparatuur in gebruik:

Weerstation
Davis VP2

Weerprogramma
Meteobridge

Weercomputer
Asus WL -330N3G

Webleverancier
Onecom

Davis VP2

Meteobridge

Asus WL -330N3G

Onecom